Bei Facebook empfehlenBei Twitter postenGoogle plusPinterest

Das Wetter im Erzgebirge am 19.07.2016

Wetter und Klima am 19.07.2016 Holzhau im Erzgebirge (630m ü.NN)
Letzte gemessene Temperatur und Uhrzeit der Messung23:45:00 Uhr13.20 °C
Temperatur (Maximum / Höchstwert) und Uhrzeit der Messung14:30:00 Uhr26.60 °C
Temperatur (Minimum / Tiefstwert) und Uhrzeit der Messung05:45:0010.00 °C
Errechneter Absolutwert der Temperaturschwankungen zwischen Tmin und Tmax des Tages16.60 K
Errechnete Tagesmitteltemperatur18.56458 °C
Gesamt - Niederschlag des Tages (in flüssiger Form)0.00 Liter / m²
Luftdruck (Maximum / Höchstwert) und Zeitpunkt der Messung14:45:00 Uhr1020.30 hPa
Luftdruck (Minimum / Tiefstwert) und Zeitpunkt der Messung21:00:00 Uhr1019.50 hPa
Errechneter Absolutwert der Luftdruckschwankungen des Tages0.80 hPa
Höchste gemessene Windgeschwindigkeit und Uhrzeit der Messung23:45:00 Uhr0.00 km/h
Errechnete Windhäufigkeit in Relation zu den Messwerten des Tages0.00000 %
Niedrigste Windkühle (Windchill) und Zeitpunkt der Messung05:45:00 Uhr10.00 °C
Taupunkt (Maximum / Höchstwert) und Uhrzeit der Messung14:15:00 Uhr17.60 °C
Taupunkt (Minimum / Tiefstwert) und Uhrzeit der Messung05:45:008.80 °C
Anzahl der automatisch eingelesenen Messwerte 96

Detaillierte Wetter- und Klima- Messwerte für den 19.07.2016 in Holzhau im Erzgebirge (630m ü.NN)
ZeitTemperaturLuftdruckRel. LuftfeuchteWindWindrichtungWindchillTaupunktNiederschlag l/m²
23:45:0013.20 °C1019.70 hPa88.00 %11.30 °C 
23:30:0013.30 °C1019.70 hPa87.00 %11.20 °C 
23:15:0013.30 °C1019.80 hPa86.00 %11.00 °C 
23:00:0013.40 °C1019.60 hPa85.00 %10.90 °C 
22:45:0013.80 °C1019.70 hPa84.00 %11.10 °C 
22:30:0014.10 °C1019.70 hPa82.00 %11.10 °C 
22:15:0014.40 °C1019.60 hPa81.00 %11.20 °C 
22:00:0014.90 °C1019.60 hPa80.00 %11.50 °C 
21:45:0015.50 °C1019.60 hPa78.00 %11.70 °C 
21:30:0016.30 °C1019.80 hPa77.00 %12.30 °C 
21:15:0017.10 °C1019.60 hPa75.00 %12.60 °C 
21:00:0017.90 °C1019.50 hPa73.00 %13.00 °C 
20:45:0018.90 °C1019.70 hPa71.00 %13.50 °C 
20:30:0019.90 °C1019.50 hPa69.00 %14.00 °C 
20:15:0020.80 °C1019.70 hPa67.00 %14.50 °C 
20:00:0021.30 °C1019.70 hPa67.00 %14.90 °C 
19:45:0021.40 °C1019.60 hPa66.00 %14.80 °C 
19:30:0021.50 °C1019.60 hPa65.00 %14.60 °C 
19:15:0021.90 °C1019.60 hPa63.00 %14.50 °C 
19:00:0022.30 °C1019.60 hPa63.00 %14.90 °C 
18:45:0022.60 °C1019.50 hPa62.00 %15.00 °C 
18:30:0023.30 °C1019.60 hPa58.00 %14.60 °C 
18:15:0024.40 °C1019.60 hPa56.00 %15.10 °C 
18:00:0025.10 °C1019.70 hPa55.00 %15.40 °C 
17:45:0025.90 °C1019.60 hPa55.00 %16.20 °C 
17:30:0025.50 °C1019.80 hPa56.00 %16.10 °C 
17:15:0025.30 °C1019.70 hPa56.00 %15.90 °C 
17:00:0024.90 °C1019.80 hPa59.00 %16.30 °C 
16:45:0024.70 °C1019.90 hPa58.00 %15.90 °C 
16:30:0025.20 °C1020.00 hPa57.00 %16.10 °C 
16:15:0025.50 °C1020.10 hPa56.00 %16.10 °C 
16:00:0025.90 °C1020.00 hPa55.00 %16.20 °C 
15:45:0025.90 °C1020.00 hPa55.00 %16.20 °C 
15:30:0025.60 °C1020.10 hPa56.00 %16.20 °C 
15:15:0025.60 °C1020.20 hPa56.00 %16.20 °C 
15:00:0025.90 °C1020.20 hPa60.00 %17.50 °C 
14:45:0025.50 °C1020.30 hPa57.00 %16.40 °C 
14:30:0026.60 °C1020.20 hPa56.00 %17.10 °C 
14:15:0026.20 °C1020.20 hPa59.00 %17.60 °C 
14:00:0025.30 °C1020.00 hPa59.00 %16.70 °C 
13:45:0025.10 °C1020.10 hPa59.00 %16.50 °C 
13:30:0025.60 °C1020.00 hPa60.00 %17.30 °C 
13:15:0025.30 °C1020.20 hPa60.00 %17.00 °C 
13:00:0024.80 °C1020.10 hPa63.00 %17.30 °C 
12:45:0024.20 °C1020.20 hPa61.00 %16.20 °C 
12:30:0024.60 °C1020.10 hPa61.00 %16.60 °C 
12:15:0024.10 °C1020.20 hPa64.00 %16.90 °C 
12:00:0024.10 °C1019.90 hPa64.00 %16.90 °C 
11:45:0023.60 °C1020.10 hPa64.00 %16.40 °C 
11:30:0023.50 °C1019.80 hPa66.00 %16.80 °C 
11:15:0022.30 °C1020.00 hPa67.00 %15.90 °C 
11:00:0022.80 °C1020.10 hPa67.00 %16.40 °C 
10:45:0022.40 °C1020.20 hPa69.00 %16.40 °C 
10:30:0022.10 °C1020.30 hPa67.00 %15.70 °C 
10:15:0022.20 °C1020.00 hPa70.00 %16.50 °C 
10:00:0021.40 °C1019.70 hPa71.00 %15.90 °C 
09:45:0021.10 °C1019.70 hPa73.00 %16.10 °C 
09:30:0020.60 °C1019.70 hPa75.00 %16.00 °C 
09:15:0020.40 °C1019.90 hPa76.00 %16.00 °C 
09:00:0019.90 °C1020.00 hPa76.00 %15.50 °C 
08:45:0019.90 °C1020.20 hPa78.00 %16.00 °C 
08:30:0019.80 °C1020.10 hPa81.00 %16.40 °C 
08:15:0019.60 °C1020.20 hPa84.00 %16.80 °C 
08:00:0019.00 °C1020.30 hPa88.00 %17.00 °C 
07:45:0017.60 °C1020.10 hPa92.00 %16.30 °C 
07:30:0015.50 °C1020.20 hPa94.00 %14.50 °C 
07:15:0012.40 °C1020.00 hPa94.00 %11.50 °C 
07:00:0010.80 °C1020.10 hPa93.00 %9.70 °C 
06:45:0010.50 °C1019.90 hPa93.00 %9.40 °C 
06:30:0010.20 °C1019.90 hPa93.00 %9.10 °C 
06:15:0010.10 °C1019.80 hPa92.00 %8.90 °C 
06:00:0010.10 °C1019.90 hPa92.00 %8.90 °C 
05:45:0010.00 °C1019.80 hPa92.00 %8.80 °C 
05:30:0010.10 °C1020.00 hPa92.00 %8.90 °C 
05:15:0010.10 °C1019.80 hPa92.00 %8.90 °C 
05:00:0010.20 °C1019.80 hPa91.00 %8.80 °C 
04:45:0010.40 °C1019.80 hPa91.00 %9.00 °C 
04:30:0010.60 °C1019.70 hPa91.00 %9.20 °C 
04:15:0010.90 °C1019.60 hPa91.00 %9.50 °C 
04:00:0011.10 °C1019.80 hPa90.00 %9.50 °C 
03:45:0011.40 °C1019.70 hPa90.00 %9.80 °C 
03:30:0011.80 °C1019.90 hPa90.00 %10.20 °C 
03:15:0012.30 °C1020.00 hPa90.00 %10.70 °C 
03:00:0012.80 °C1019.80 hPa89.00 %11.00 °C 
02:45:0013.20 °C1019.70 hPa89.00 %11.40 °C 
02:30:0013.40 °C1019.90 hPa89.00 %11.60 °C 
02:15:0013.50 °C1019.90 hPa89.00 %11.70 °C 
02:00:0013.60 °C1019.70 hPa89.00 %11.80 °C 
01:45:0013.60 °C1019.80 hPa88.00 %11.70 °C 
01:30:0013.70 °C1019.70 hPa88.00 %11.80 °C 
01:15:0013.90 °C1019.80 hPa88.00 %11.90 °C 
01:00:0013.90 °C1019.90 hPa88.00 %11.90 °C 
00:45:0013.90 °C1019.90 hPa88.00 %11.90 °C 
00:30:0013.90 °C1019.90 hPa88.00 %11.90 °C 
00:15:0014.10 °C1019.70 hPa88.00 %12.10 °C 
00:00:0014.10 °C1019.70 hPa87.00 %12.00 °C 

Permanenter Link zu dieser Seite: Wetter im Erzgebirge am 19.07.2016
Performance-Info: Die Erstellung der Seite / Statistik(en) / Tabelle(n) erforderte 5 Datenbankserver-Abfrage(n) und dauerte 100 Millisekunden. (Dieser Messwert ist von der Gesamt-Auslastung des Servers abhängig.)
Erzgebirge - Wetter | Erzgebirge - Wetter (Mobilgeräte) | Komplette Klimadatenbank